createdAt,value
2022-12-23T00:00:08.883Z,9.27
2022-12-23T00:02:41.147Z,9.60
2022-12-23T00:05:16.170Z,8.45
2022-12-23T00:07:47.092Z,8.98
2022-12-23T00:10:17.693Z,8.90
2022-12-23T00:13:06.788Z,8.65
2022-12-23T00:15:38.583Z,8.20
2022-12-23T00:18:09.554Z,8.70
2022-12-23T00:20:41.001Z,8.68
2022-12-23T00:23:12.045Z,9.95
2022-12-23T00:25:47.312Z,9.70
2022-12-23T00:28:20.826Z,10.75
2022-12-23T00:30:56.350Z,9.48
2022-12-23T00:33:29.548Z,9.10
2022-12-23T00:36:01.491Z,8.88
2022-12-23T00:38:50.097Z,7.57
2022-12-23T00:41:40.313Z,7.68
2022-12-23T00:44:11.097Z,7.45
2022-12-23T00:46:42.343Z,7.00
2022-12-23T00:49:35.925Z,7.60
2022-12-23T00:52:08.953Z,7.68
2022-12-23T00:54:40.481Z,7.25
2022-12-23T00:57:11.124Z,7.22
2022-12-23T00:59:41.787Z,44.40
2022-12-23T01:02:32.263Z,7.50
2022-12-23T01:05:21.222Z,6.20
2022-12-23T01:07:53.971Z,6.72
2022-12-23T01:10:27.716Z,7.00
2022-12-23T01:13:01.097Z,4.40
2022-12-23T01:15:32.233Z,5.25
2022-12-23T01:18:03.917Z,6.68
2022-12-23T01:20:34.846Z,6.68
2022-12-23T01:23:05.598Z,4.78
2022-12-23T01:25:36.104Z,3.63
2022-12-23T01:28:07.119Z,3.20
2022-12-23T01:30:39.628Z,4.47
2022-12-23T01:33:10.412Z,3.47
2022-12-23T01:35:41.578Z,2.45
2022-12-23T01:38:12.269Z,4.22
2022-12-23T01:40:46.044Z,3.55
2022-12-23T01:43:21.120Z,4.95
2022-12-23T01:45:54.407Z,3.47
2022-12-23T01:48:27.586Z,2.67
2022-12-23T01:51:04.338Z,3.38
2022-12-23T01:53:40.365Z,2.58
2022-12-23T01:56:24.938Z,2.47
2022-12-23T01:59:02.237Z,3.33
2022-12-23T02:01:51.574Z,2.65
2022-12-23T02:04:25.355Z,2.63
2022-12-23T02:07:14.342Z,2.13
2022-12-23T02:09:45.662Z,3.45
2022-12-23T02:12:35.039Z,3.22
2022-12-23T02:15:35.252Z,2.90
2022-12-23T02:18:24.312Z,3.58
2022-12-23T02:21:12.766Z,3.40
2022-12-23T02:23:43.057Z,2.50
2022-12-23T02:26:24.953Z,3.20
2022-12-23T02:29:24.331Z,3.30
2022-12-23T02:32:03.764Z,2.95
2022-12-23T02:34:58.610Z,2.90
2022-12-23T02:38:05.562Z,2.83
2022-12-23T02:40:48.387Z,2.83
2022-12-23T02:43:41.199Z,4.57
2022-12-23T02:46:22.271Z,5.72
2022-12-23T02:49:16.884Z,6.00
2022-12-23T02:51:53.577Z,5.60
2022-12-23T02:54:34.295Z,6.70
2022-12-23T02:57:09.469Z,5.15
2022-12-23T02:59:46.822Z,6.88
2022-12-23T03:02:17.536Z,6.30
2022-12-23T03:04:48.433Z,7.70
2022-12-23T03:07:43.835Z,5.80
2022-12-23T03:10:36.189Z,7.47
2022-12-23T03:13:40.106Z,7.30
2022-12-23T03:16:22.437Z,6.10
2022-12-23T03:19:14.915Z,5.80
2022-12-23T03:22:23.108Z,4.97
2022-12-23T03:25:12.315Z,3.05
2022-12-23T03:28:23.116Z,3.08
2022-12-23T03:30:56.373Z,2.33
2022-12-23T03:33:35.828Z,3.42
2022-12-23T03:36:17.455Z,2.90
2022-12-23T03:38:48.760Z,5.35
2022-12-23T03:41:23.481Z,30.55
2022-12-23T03:44:04.757Z,4.97
2022-12-23T03:46:40.406Z,2.60
2022-12-23T03:49:16.451Z,3.00
2022-12-23T03:51:58.111Z,3.17
2022-12-23T03:54:32.917Z,3.03
2022-12-23T03:57:05.911Z,3.85
2022-12-23T03:59:39.880Z,3.95
2022-12-23T04:02:35.744Z,4.10
2022-12-23T04:05:23.629Z,4.60
2022-12-23T04:08:02.906Z,4.38
2022-12-23T04:10:33.796Z,3.28
2022-12-23T04:13:04.490Z,2.92
2022-12-23T04:15:37.969Z,2.70
2022-12-23T04:18:10.606Z,2.40
2022-12-23T04:20:41.729Z,2.10
2022-12-23T04:23:12.962Z,2.25
2022-12-23T04:25:44.261Z,2.28
2022-12-23T04:28:19.164Z,1.95
2022-12-23T04:30:50.522Z,3.10
2022-12-23T04:33:21.440Z,3.10
2022-12-23T04:35:52.109Z,4.57
2022-12-23T04:38:23.141Z,3.20
2022-12-23T04:40:53.789Z,2.65
2022-12-23T04:43:24.365Z,3.10
2022-12-23T04:45:54.909Z,2.38
2022-12-23T04:48:25.685Z,2.35
2022-12-23T04:51:03.836Z,2.70
2022-12-23T04:53:38.030Z,2.50
2022-12-23T04:56:09.566Z,3.20
2022-12-23T04:58:40.039Z,3.70
2022-12-23T05:01:14.330Z,2.80
2022-12-23T05:03:45.160Z,3.25
2022-12-23T05:06:15.772Z,3.17
2022-12-23T05:08:46.407Z,3.58
2022-12-23T05:11:17.756Z,3.05
2022-12-23T05:13:49.098Z,3.95
2022-12-23T05:16:19.893Z,4.00
2022-12-23T05:18:53.110Z,3.25
2022-12-23T05:21:23.826Z,3.78
2022-12-23T05:23:54.708Z,3.70
2022-12-23T05:26:25.724Z,3.40
2022-12-23T05:28:56.855Z,3.20
2022-12-23T05:31:27.544Z,3.15
2022-12-23T05:34:06.353Z,3.38
2022-12-23T05:36:37.195Z,2.95
2022-12-23T05:39:08.901Z,3.42
2022-12-23T05:41:40.487Z,3.70
2022-12-23T05:44:10.790Z,3.30
2022-12-23T05:46:43.773Z,2.75
2022-12-23T05:49:14.546Z,3.10
2022-12-23T05:51:45.143Z,3.40
2022-12-23T05:54:15.987Z,3.63
2022-12-23T05:56:46.660Z,3.72
2022-12-23T05:59:18.487Z,4.38
2022-12-23T06:01:49.742Z,4.28
2022-12-23T06:04:20.452Z,4.38
2022-12-23T06:06:50.805Z,4.40
2022-12-23T06:09:24.277Z,4.78
2022-12-23T06:11:54.825Z,4.85
2022-12-23T06:14:29.090Z,4.95
2022-12-23T06:17:00.288Z,5.32
2022-12-23T06:19:30.899Z,4.70
2022-12-23T06:22:02.187Z,4.45
2022-12-23T06:24:33.691Z,4.13
2022-12-23T06:27:04.018Z,6.28
2022-12-23T06:29:36.862Z,4.22
2022-12-23T06:32:08.272Z,4.65
2022-12-23T06:34:39.283Z,4.88
2022-12-23T06:37:09.617Z,4.97
2022-12-23T06:39:40.119Z,4.78
2022-12-23T06:42:10.651Z,4.53
2022-12-23T06:44:42.106Z,4.25
2022-12-23T06:47:12.990Z,4.60
2022-12-23T06:49:43.608Z,5.25
2022-12-23T06:52:13.937Z,4.90
2022-12-23T06:54:44.529Z,4.82
2022-12-23T06:57:14.808Z,4.70
2022-12-23T06:59:45.640Z,5.38
2022-12-23T07:02:16.200Z,5.63
2022-12-23T07:04:47.001Z,4.50
2022-12-23T07:07:18.507Z,3.85
2022-12-23T07:09:49.085Z,3.70
2022-12-23T07:12:20.375Z,3.92
2022-12-23T07:14:51.035Z,3.72
2022-12-23T07:17:24.357Z,3.10
2022-12-23T07:19:54.911Z,2.90
2022-12-23T07:22:25.732Z,5.03
2022-12-23T07:24:56.038Z,3.38
2022-12-23T07:27:26.825Z,4.38
2022-12-23T07:29:57.245Z,5.63
2022-12-23T07:32:28.162Z,3.38
2022-12-23T07:34:58.783Z,3.63
2022-12-23T07:37:29.572Z,3.08
2022-12-23T07:40:08.267Z,2.85
2022-12-23T07:42:47.269Z,3.40
2022-12-23T07:45:20.901Z,4.63
2022-12-23T07:47:58.096Z,4.35
2022-12-23T07:50:34.032Z,3.53
2022-12-23T07:53:04.897Z,3.47
2022-12-23T07:55:35.644Z,4.05
2022-12-23T07:58:06.471Z,4.07
2022-12-23T08:00:37.360Z,4.03
2022-12-23T08:03:09.753Z,5.35
2022-12-23T08:05:40.421Z,5.45
2022-12-23T08:08:11.271Z,4.15
2022-12-23T08:10:48.053Z,3.80
2022-12-23T08:13:19.163Z,3.55
2022-12-23T08:15:50.236Z,3.30
2022-12-23T08:18:20.933Z,3.38
2022-12-23T08:21:04.258Z,3.70
2022-12-23T08:23:36.934Z,4.00
2022-12-23T08:26:10.751Z,5.03
2022-12-23T08:28:46.515Z,4.13
2022-12-23T08:31:30.001Z,5.57
2022-12-23T08:34:02.044Z,3.78
2022-12-23T08:36:34.952Z,3.97
2022-12-23T08:39:09.019Z,4.75
2022-12-23T08:41:42.781Z,4.72
2022-12-23T08:44:14.204Z,7.90
2022-12-23T08:46:46.183Z,5.07
2022-12-23T08:49:17.468Z,3.92
2022-12-23T08:51:48.507Z,4.70
2022-12-23T08:54:21.280Z,4.32
2022-12-23T08:56:52.320Z,3.53
2022-12-23T08:59:22.778Z,4.63
2022-12-23T09:01:53.517Z,4.30
2022-12-23T09:04:24.185Z,4.85
2022-12-23T09:06:54.891Z,4.30
2022-12-23T09:09:25.503Z,4.65
2022-12-23T09:11:56.568Z,6.50
2022-12-23T09:14:27.286Z,4.97
2022-12-23T09:16:58.429Z,5.43
2022-12-23T09:19:29.083Z,5.75
2022-12-23T09:22:00.227Z,4.60
2022-12-23T09:24:31.541Z,5.40
2022-12-23T09:27:02.473Z,5.10
2022-12-23T09:29:33.785Z,6.10
2022-12-23T09:32:04.652Z,6.03
2022-12-23T09:34:35.567Z,5.47
2022-12-23T09:37:07.012Z,5.90
2022-12-23T09:39:40.096Z,7.00
2022-12-23T09:42:34.588Z,5.82
2022-12-23T09:45:17.561Z,6.55
2022-12-23T09:47:48.184Z,5.20
2022-12-23T09:50:32.024Z,5.53
2022-12-23T09:53:23.074Z,4.63
2022-12-23T09:55:59.567Z,5.80
2022-12-23T09:58:49.830Z,6.38
2022-12-23T10:01:45.035Z,7.25
2022-12-23T10:04:25.170Z,7.55
2022-12-23T10:07:07.262Z,10.32
2022-12-23T10:09:40.789Z,11.25
2022-12-23T10:12:39.089Z,11.73
2022-12-23T10:15:22.554Z,12.45
2022-12-23T10:17:56.078Z,14.27
2022-12-23T10:20:41.618Z,16.15
2022-12-23T10:23:18.291Z,14.48
2022-12-23T10:25:52.824Z,10.55
2022-12-23T10:28:24.844Z,13.23
2022-12-23T10:31:30.867Z,13.13
2022-12-23T10:34:36.610Z,13.40
2022-12-23T10:37:18.868Z,11.43
2022-12-23T10:40:27.680Z,13.13
2022-12-23T10:43:00.547Z,13.15
2022-12-23T10:45:31.911Z,20.13
2022-12-23T10:48:23.467Z,17.90
2022-12-23T10:51:04.896Z,12.57
2022-12-23T10:54:04.358Z,12.98
2022-12-23T10:56:35.232Z,16.80
2022-12-23T10:59:09.034Z,14.63
2022-12-23T11:01:40.975Z,15.70
2022-12-23T11:04:22.524Z,21.80
2022-12-23T11:07:18.276Z,16.92
2022-12-23T11:10:06.312Z,18.52
2022-12-23T11:12:45.255Z,23.63
2022-12-23T11:15:39.367Z,20.67
2022-12-23T11:18:13.745Z,22.13
2022-12-23T11:20:46.677Z,14.73
2022-12-23T11:23:31.641Z,13.88
2022-12-23T11:26:05.350Z,16.05
2022-12-23T11:28:39.645Z,14.43
2022-12-23T11:31:15.347Z,16.67
2022-12-23T11:33:57.376Z,21.17
2022-12-23T11:36:29.858Z,14.45
2022-12-23T11:39:08.312Z,12.73
2022-12-23T11:41:45.372Z,11.98
2022-12-23T11:44:28.082Z,12.05
2022-12-23T11:47:00.351Z,19.30
2022-12-23T11:49:32.784Z,14.32
2022-12-23T11:52:11.295Z,13.27
2022-12-23T11:54:42.289Z,12.38
2022-12-23T11:57:20.119Z,15.35
2022-12-23T11:59:51.881Z,16.65
2022-12-23T12:02:42.768Z,14.40
2022-12-23T12:05:29.382Z,16.75
2022-12-23T12:08:05.468Z,12.70
2022-12-23T12:10:36.969Z,11.13
2022-12-23T12:13:10.573Z,9.68
2022-12-23T12:16:04.297Z,12.13
2022-12-23T12:18:35.845Z,12.05
2022-12-23T12:21:13.811Z,11.18
2022-12-23T12:23:55.472Z,12.45
2022-12-23T12:26:40.830Z,13.35
2022-12-23T12:29:31.371Z,9.25
2022-12-23T12:32:03.575Z,8.35
2022-12-23T12:34:42.965Z,10.77
2022-12-23T12:37:21.885Z,10.73
2022-12-23T12:40:13.012Z,13.48
2022-12-23T12:42:45.741Z,8.95
2022-12-23T12:45:57.628Z,9.48
2022-12-23T12:48:59.839Z,9.13
2022-12-23T12:51:49.859Z,8.27
2022-12-23T12:55:02.288Z,8.10
2022-12-23T12:57:38.177Z,8.43
2022-12-23T13:00:25.555Z,9.50
2022-12-23T13:03:13.404Z,7.35
2022-12-23T13:06:14.385Z,8.05
2022-12-23T13:09:07.016Z,8.68
2022-12-23T13:12:09.229Z,9.18
2022-12-23T13:15:00.288Z,7.47
2022-12-23T13:17:37.659Z,6.80
2022-12-23T13:20:38.278Z,8.23
2022-12-23T13:23:42.869Z,7.55
2022-12-23T13:26:35.023Z,8.50
2022-12-23T13:29:29.038Z,7.05
2022-12-23T13:32:17.749Z,6.30
2022-12-23T13:34:53.533Z,6.80
2022-12-23T13:37:45.177Z,6.78
2022-12-23T13:40:38.400Z,8.02
2022-12-23T13:43:17.739Z,7.43
2022-12-23T13:45:49.388Z,7.68
2022-12-23T13:48:53.949Z,8.05
2022-12-23T13:52:01.250Z,7.13
2022-12-23T13:54:37.145Z,7.70
2022-12-23T13:57:41.089Z,7.85
2022-12-23T14:00:23.062Z,8.50
2022-12-23T14:02:54.698Z,8.73
2022-12-23T14:05:48.128Z,8.13
2022-12-23T14:08:22.127Z,6.85
2022-12-23T14:11:02.246Z,8.00
2022-12-23T14:13:42.371Z,12.32
2022-12-23T14:16:17.781Z,9.50
2022-12-23T14:19:02.845Z,8.60
2022-12-23T14:21:42.437Z,8.57
2022-12-23T14:24:30.906Z,7.95
2022-12-23T14:27:22.891Z,7.88
2022-12-23T14:30:11.819Z,7.78
2022-12-23T14:33:03.832Z,8.15
2022-12-23T14:35:42.865Z,8.27
2022-12-23T14:38:17.002Z,10.68
2022-12-23T14:40:52.592Z,10.05
2022-12-23T14:43:52.344Z,9.68
2022-12-23T14:46:51.462Z,8.70
2022-12-23T14:49:45.561Z,9.52
2022-12-23T14:52:51.943Z,10.38
2022-12-23T14:55:31.596Z,8.57
2022-12-23T14:58:25.893Z,8.35
2022-12-23T15:01:04.733Z,7.70
2022-12-23T15:03:41.661Z,7.43
2022-12-23T15:06:44.473Z,6.38
2022-12-23T15:09:55.711Z,7.50
2022-12-23T15:12:35.783Z,6.90
2022-12-23T15:15:27.104Z,7.00
2022-12-23T15:18:11.189Z,6.50
2022-12-23T15:20:41.876Z,6.85
2022-12-23T15:23:15.844Z,5.88
2022-12-23T15:25:47.915Z,6.53
2022-12-23T15:28:26.245Z,7.43
2022-12-23T15:30:58.149Z,7.63
2022-12-23T15:36:29.474Z,5.82
2022-12-23T15:39:01.614Z,7.65
2022-12-23T15:41:32.824Z,5.72
2022-12-23T15:44:11.049Z,4.72
2022-12-23T15:46:42.757Z,5.28
2022-12-23T15:49:14.467Z,5.15
2022-12-23T15:52:07.237Z,4.32
2022-12-23T15:54:59.325Z,4.47
2022-12-23T15:57:31.233Z,4.40
2022-12-23T16:00:02.477Z,4.20
2022-12-23T16:03:02.175Z,3.67
2022-12-23T16:05:38.479Z,4.25
2022-12-23T16:08:21.797Z,4.63
2022-12-23T16:11:08.503Z,5.35
2022-12-23T16:13:43.124Z,4.07
2022-12-23T16:16:43.735Z,4.05
2022-12-23T16:19:48.949Z,3.88
2022-12-23T16:22:22.626Z,4.30
2022-12-23T16:25:16.010Z,4.03
2022-12-23T16:27:50.229Z,4.38
2022-12-23T16:30:27.348Z,4.10
2022-12-23T16:33:08.873Z,3.90
2022-12-23T16:35:42.099Z,4.20
2022-12-23T16:38:26.154Z,3.95
2022-12-23T16:40:58.391Z,3.45
2022-12-23T16:43:29.300Z,3.40
2022-12-23T16:46:00.836Z,3.60
2022-12-23T16:48:44.772Z,3.80
2022-12-23T16:51:17.992Z,3.95
2022-12-23T16:53:56.212Z,3.45
2022-12-23T16:56:30.217Z,3.60
2022-12-23T16:59:00.766Z,3.58
2022-12-23T17:01:40.273Z,3.40
2022-12-23T17:04:11.486Z,3.03
2022-12-23T17:06:42.555Z,3.47
2022-12-23T17:09:13.287Z,3.30
2022-12-23T17:11:49.633Z,4.22
2022-12-23T17:14:25.157Z,4.22
2022-12-23T17:16:55.825Z,3.75
2022-12-23T17:19:29.177Z,3.53
2022-12-23T17:22:03.252Z,3.65
2022-12-23T17:24:33.768Z,3.20
2022-12-23T17:27:06.534Z,3.45
2022-12-23T17:29:37.387Z,3.20
2022-12-23T17:32:13.483Z,3.72
2022-12-23T17:34:44.290Z,3.55
2022-12-23T17:37:17.327Z,3.80
2022-12-23T17:39:48.690Z,3.78
2022-12-23T17:42:25.812Z,3.35
2022-12-23T17:44:57.606Z,3.83
2022-12-23T17:47:29.183Z,3.83
2022-12-23T17:49:59.510Z,3.30
2022-12-23T17:52:30.280Z,3.03
2022-12-23T17:55:01.255Z,2.90
2022-12-23T17:57:32.707Z,3.50
2022-12-23T18:00:03.082Z,3.00
2022-12-23T18:02:42.514Z,2.78
2022-12-23T18:05:27.789Z,3.22
2022-12-23T18:08:00.578Z,3.10
2022-12-23T18:10:38.531Z,2.90
2022-12-23T18:13:14.963Z,2.70
2022-12-23T18:15:46.740Z,2.03
2022-12-23T18:18:28.565Z,2.65
2022-12-23T18:21:01.605Z,2.50
2022-12-23T18:23:34.857Z,2.25
2022-12-23T18:26:09.020Z,3.10
2022-12-23T18:28:42.834Z,2.53
2022-12-23T18:31:22.830Z,2.08
2022-12-23T18:33:53.517Z,2.20
2022-12-23T18:36:31.275Z,1.83
2022-12-23T18:39:01.959Z,2.00
2022-12-23T18:41:33.112Z,2.03
2022-12-23T18:44:04.226Z,2.15
2022-12-23T18:46:35.343Z,2.10
2022-12-23T18:49:05.856Z,2.00
2022-12-23T18:51:36.674Z,2.03
2022-12-23T18:54:07.983Z,2.00
2022-12-23T18:56:39.006Z,1.92
2022-12-23T18:59:17.274Z,2.20
2022-12-23T19:01:48.075Z,2.55
2022-12-23T19:04:18.835Z,2.63
2022-12-23T19:06:49.357Z,2.25
2022-12-23T19:09:21.819Z,2.40
2022-12-23T19:11:54.545Z,2.40
2022-12-23T19:14:25.195Z,2.63
2022-12-23T19:17:00.892Z,2.88
2022-12-23T19:19:31.647Z,3.03
2022-12-23T19:22:03.270Z,2.70
2022-12-23T19:24:34.156Z,2.30
2022-12-23T19:27:07.786Z,2.70
2022-12-23T19:29:38.672Z,2.67
2022-12-23T19:32:09.478Z,3.15
2022-12-23T19:34:40.177Z,3.00
2022-12-23T19:37:11.039Z,2.53
2022-12-23T19:39:42.365Z,2.70
2022-12-23T19:42:12.918Z,2.72
2022-12-23T19:44:43.413Z,2.47
2022-12-23T19:47:13.989Z,2.70
2022-12-23T19:49:44.381Z,2.70
2022-12-23T19:52:15.041Z,2.83
2022-12-23T19:54:46.262Z,2.95
2022-12-23T19:57:16.892Z,2.50
2022-12-23T19:59:48.143Z,2.70
2022-12-23T20:02:20.940Z,2.50
2022-12-23T20:04:51.521Z,2.10
2022-12-23T20:07:22.043Z,2.03
2022-12-23T20:09:53.332Z,2.38
2022-12-23T20:12:24.519Z,2.40
2022-12-23T20:14:57.921Z,2.03
2022-12-23T20:17:28.465Z,2.15
2022-12-23T20:19:59.117Z,2.20
2022-12-23T20:22:32.577Z,2.22
2022-12-23T20:25:06.354Z,2.10
2022-12-23T20:27:39.678Z,2.15
2022-12-23T20:30:11.333Z,2.00
2022-12-23T20:32:41.831Z,2.10
2022-12-23T20:35:13.509Z,2.30
2022-12-23T20:37:45.165Z,2.38
2022-12-23T20:40:18.426Z,2.60
2022-12-23T20:42:48.692Z,2.58
2022-12-23T20:45:19.330Z,2.75
2022-12-23T20:47:49.892Z,3.38
2022-12-23T20:50:20.628Z,4.88
2022-12-23T20:52:51.727Z,3.45
2022-12-23T20:55:22.127Z,3.25
2022-12-23T20:57:52.544Z,3.30
2022-12-23T21:00:23.006Z,3.22
2022-12-23T21:02:53.620Z,3.20
2022-12-23T21:05:24.200Z,3.47
2022-12-23T21:07:54.806Z,3.83
2022-12-23T21:10:24.888Z,3.42
2022-12-23T21:12:55.806Z,3.35
2022-12-23T21:15:26.663Z,3.47
2022-12-23T21:17:57.604Z,3.08
2022-12-23T21:20:28.751Z,3.42
2022-12-23T21:23:00.229Z,3.17
2022-12-23T21:25:30.813Z,3.22
2022-12-23T21:28:01.158Z,3.70
2022-12-23T21:30:35.123Z,3.92
2022-12-23T21:33:14.824Z,4.25
2022-12-23T21:35:45.371Z,4.00
2022-12-23T21:38:16.867Z,3.35
2022-12-23T21:40:50.710Z,3.35
2022-12-23T21:43:23.918Z,3.72
2022-12-23T21:45:59.136Z,3.80
2022-12-23T21:48:32.169Z,3.88
2022-12-23T21:51:19.986Z,3.72
2022-12-23T21:53:53.354Z,4.35
2022-12-23T21:56:27.402Z,3.90
2022-12-23T21:59:00.114Z,3.70
2022-12-23T22:01:34.115Z,3.40
2022-12-23T22:04:04.746Z,4.10
2022-12-23T22:06:43.031Z,3.70
2022-12-23T22:09:20.527Z,4.15
2022-12-23T22:11:52.523Z,5.13
2022-12-23T22:14:23.877Z,5.13
2022-12-23T22:16:54.556Z,5.55
2022-12-23T22:19:25.347Z,6.80
2022-12-23T22:21:55.742Z,13.60
2022-12-23T22:24:26.227Z,18.52
2022-12-23T22:26:56.825Z,9.30
2022-12-23T22:29:27.426Z,7.25
2022-12-23T22:31:58.326Z,7.03
2022-12-23T22:34:29.314Z,5.53
2022-12-23T22:37:02.581Z,5.22
2022-12-23T22:39:33.418Z,5.18
2022-12-23T22:42:04.319Z,4.57
2022-12-23T22:44:35.413Z,4.47
2022-12-23T22:47:05.751Z,5.03
2022-12-23T22:49:36.284Z,4.75
2022-12-23T22:52:08.047Z,5.28
2022-12-23T22:54:38.610Z,5.50
2022-12-23T22:57:09.183Z,5.40
2022-12-23T22:59:39.734Z,6.07
2022-12-23T23:02:10.446Z,6.38
2022-12-23T23:04:40.999Z,5.00
2022-12-23T23:07:11.627Z,5.18
2022-12-23T23:09:42.642Z,5.85
2022-12-23T23:12:13.800Z,6.45
2022-12-23T23:15:01.911Z,6.40
2022-12-23T23:17:33.292Z,6.18
2022-12-23T23:20:06.381Z,6.05
2022-12-23T23:22:40.199Z,6.00
2022-12-23T23:25:11.366Z,5.80
2022-12-23T23:27:41.617Z,5.55
2022-12-23T23:30:12.574Z,5.93
2022-12-23T23:32:43.164Z,6.53
2022-12-23T23:35:14.143Z,6.40
2022-12-23T23:37:45.011Z,5.75
2022-12-23T23:40:17.277Z,6.88
2022-12-23T23:42:48.293Z,7.30
2022-12-23T23:45:22.334Z,7.40
2022-12-23T23:47:53.000Z,8.52
2022-12-23T23:50:26.268Z,7.68
2022-12-23T23:52:58.336Z,7.68
2022-12-23T23:55:29.405Z,7.53
2022-12-23T23:57:59.852Z,7.60
